THA62 LOWW-VTBS
Flight info
| Callsign | THA62 |
|---|---|
| Flight time | N/A |
| Altitude | 35000 |
| Route | ADAMA DCT VEDER DCT ALAMU DCT EPARI DCT BUDOP DCT UDROS/N0486F370 UN743 GAKSU UT310 SIN UN644 KARDE UL851 TBN UM11 REBLO M11 LUSAL M747 SULEL N449 DUKAN B449 RANAH L750 VELDT/N0479F390 L750 MERUN G452 LKN R460 BBN P646 JJS Z12 DOPID P646 PTN N895 BETNO G463 TARED DCT WILLA WILLA1C |
| Aircraft | A359/H-SDE2E3GHIJ3J4J5LM1ORWXY/LB1D1 |
Departure
| Time | 2026-04-20 06:06 |
|---|---|
| Airport | Vienna International Airport (LOWW) |
Arrival
| Time | N/A |
|---|---|
| Airport | Suvarnabhumi Airport (VTBS) |
| Time | Latitude | Longitude | Altitude | Speed | Heading |
|---|---|---|---|---|---|
| 2026-04-20 05:56 | 48.11757 | 16.56115 | 614 ft | 0 kts | 25° |
| 2026-04-20 05:58 | 48.11745 | 16.56106 | 630 ft | 4 kts | 25° |
| 2026-04-20 05:58 | 48.11721 | 16.56088 | 631 ft | 4 kts | 25° |
| 2026-04-20 05:58 | 48.11700 | 16.56072 | 633 ft | 4 kts | 51° |
| 2026-04-20 05:59 | 48.11697 | 16.56047 | 634 ft | 4 kts | 128° |
| 2026-04-20 05:59 | 48.11713 | 16.56017 | 634 ft | 2 kts | 116° |
| 2026-04-20 05:59 | 48.11713 | 16.56015 | 634 ft | 1 kts | 116° |
| 2026-04-20 06:01 | 48.11712 | 16.56020 | 619 ft | 3 kts | 115° |
| 2026-04-20 06:01 | 48.11677 | 16.56127 | 624 ft | 13 kts | 117° |
| 2026-04-20 06:02 | 48.11634 | 16.56257 | 624 ft | 14 kts | 115° |
| 2026-04-20 06:02 | 48.11589 | 16.56394 | 624 ft | 15 kts | 116° |
| 2026-04-20 06:02 | 48.11557 | 16.56490 | 630 ft | 16 kts | 116° |
| 2026-04-20 06:02 | 48.11510 | 16.56634 | 630 ft | 15 kts | 115° |
| 2026-04-20 06:03 | 48.11468 | 16.56765 | 630 ft | 15 kts | 116° |
| 2026-04-20 06:03 | 48.11421 | 16.56912 | 632 ft | 16 kts | 116° |
| 2026-04-20 06:03 | 48.11371 | 16.57064 | 636 ft | 17 kts | 116° |
| 2026-04-20 06:03 | 48.11317 | 16.57232 | 629 ft | 19 kts | 116° |
| 2026-04-20 06:04 | 48.11259 | 16.57407 | 635 ft | 19 kts | 117° |
| 2026-04-20 06:04 | 48.11191 | 16.57584 | 634 ft | 19 kts | 139° |
| 2026-04-20 06:04 | 48.11079 | 16.57635 | 634 ft | 16 kts | 164° |
| 2026-04-20 06:04 | 48.10983 | 16.57596 | 632 ft | 13 kts | 215° |
| 2026-04-20 06:05 | 48.10936 | 16.57504 | 630 ft | 10 kts | 269° |
| 2026-04-20 06:05 | 48.10973 | 16.57354 | 636 ft | 39 kts | 295° |
| 2026-04-20 06:05 | 48.11210 | 16.56632 | 635 ft | 114 kts | 296° |
| 2026-04-20 06:05 | 48.11658 | 16.55279 | 651 ft | 175 kts | 300° |
| 2026-04-20 06:06 | 48.12200 | 16.53661 | 1506 ft | 171 kts | 297° |
| 2026-04-20 06:06 | 48.12565 | 16.51960 | 2293 ft | 181 kts | 274° |
| 2026-04-20 06:06 | 48.12022 | 16.50123 | 2501 ft | 216 kts | 231° |
| 2026-04-20 06:06 | 48.10627 | 16.48906 | 2665 ft | 246 kts | 210° |
| 2026-04-20 06:07 | 48.09070 | 16.47703 | 2995 ft | 258 kts | 215° |
| 2026-04-20 06:07 | 48.07294 | 16.47016 | 3571 ft | 270 kts | 185° |
| 2026-04-20 06:07 | 48.05447 | 16.47313 | 4491 ft | 259 kts | 174° |
| 2026-04-20 06:07 | 48.03745 | 16.47762 | 5495 ft | 240 kts | 175° |
| 2026-04-20 06:08 | 48.02119 | 16.48158 | 6215 ft | 233 kts | 177° |
| 2026-04-20 06:08 | 48.00498 | 16.48507 | 6531 ft | 246 kts | 178° |
| 2026-04-20 06:08 | 47.98748 | 16.48852 | 6735 ft | 262 kts | 178° |
| 2026-04-20 06:08 | 47.96886 | 16.49306 | 6932 ft | 282 kts | 169° |
| 2026-04-20 06:09 | 47.95087 | 16.50666 | 7230 ft | 299 kts | 139° |
| 2026-04-20 06:09 | 47.93892 | 16.53211 | 7703 ft | 302 kts | 108° |
| 2026-04-20 06:09 | 47.93643 | 16.56275 | 8249 ft | 297 kts | 77° |
| 2026-04-20 06:09 | 47.94358 | 16.59089 | 8776 ft | 288 kts | 49° |
| 2026-04-20 06:10 | 47.95618 | 16.61401 | 9343 ft | 291 kts | 48° |
| 2026-04-20 06:10 | 47.96569 | 16.64123 | 9898 ft | 301 kts | 65° |
| 2026-04-20 06:10 | 47.97289 | 16.67104 | 10303 ft | 311 kts | 67° |
| 2026-04-20 06:10 | 47.97997 | 16.70195 | 10519 ft | 326 kts | 68° |